createdAt,value
2022-09-15T00:03:04.536Z,5.2
2022-09-15T00:08:48.046Z,5
2022-09-15T00:14:31.057Z,5
2022-09-15T00:20:14.701Z,5.5
2022-09-15T00:25:57.927Z,4.9
2022-09-15T00:31:42.130Z,5.5
2022-09-15T00:37:25.351Z,4.8
2022-09-15T00:43:10.326Z,5.1
2022-09-15T00:48:57.358Z,5
2022-09-15T00:54:44.152Z,4.9
2022-09-15T01:00:28.841Z,5.2
2022-09-15T01:06:14.418Z,5
2022-09-15T01:11:57.822Z,4.7
2022-09-15T01:17:46.933Z,5.1
2022-09-15T01:23:37.043Z,5
2022-09-15T01:29:40.480Z,4.5
2022-09-15T01:35:33.072Z,4.6
2022-09-15T01:41:18.335Z,4.5
2022-09-15T01:47:03.365Z,4.4
2022-09-15T01:52:48.127Z,4.3
2022-09-15T01:58:31.355Z,3.7
2022-09-15T02:04:16.354Z,3.9
2022-09-15T02:10:04.842Z,3.6
2022-09-15T02:15:50.808Z,3.8
2022-09-15T02:21:35.617Z,4.1
2022-09-15T02:27:21.154Z,3.8
2022-09-15T02:33:06.608Z,3.6
2022-09-15T02:38:52.919Z,3.8
2022-09-15T02:44:36.360Z,3.3
2022-09-15T02:50:19.973Z,3.2
2022-09-15T02:56:03.975Z,2.8
2022-09-15T03:01:47.306Z,3.2
2022-09-15T03:07:30.684Z,2.8
2022-09-15T03:13:13.858Z,2.8
2022-09-15T03:18:58.008Z,3
2022-09-15T03:24:41.250Z,2.6
2022-09-15T03:30:24.849Z,2.6
2022-09-15T03:36:08.591Z,2.3
2022-09-15T03:41:51.999Z,2.5
2022-09-15T03:47:35.139Z,2.2
2022-09-15T03:53:18.455Z,2.3
2022-09-15T03:59:02.107Z,2.4
2022-09-15T04:04:45.432Z,2.2
2022-09-15T04:10:28.842Z,2.4
2022-09-15T04:16:14.223Z,2.5
2022-09-15T04:21:57.571Z,2.2
2022-09-15T04:27:40.909Z,2.3
2022-09-15T04:33:24.130Z,2.7
2022-09-15T04:39:07.266Z,2.5
2022-09-15T04:44:50.617Z,2.6
2022-09-15T04:50:36.679Z,2.5
2022-09-15T04:56:21.741Z,3.1
2022-09-15T05:02:05.158Z,2.9
2022-09-15T05:07:49.075Z,2.8
2022-09-15T05:13:32.442Z,3.2
2022-09-15T05:19:15.606Z,3.1
2022-09-15T05:24:58.789Z,2.8
2022-09-15T05:30:46.346Z,3.1
2022-09-15T05:36:29.601Z,3
2022-09-15T05:42:12.894Z,3.1
2022-09-15T05:47:58.689Z,3.6
2022-09-15T05:53:42.651Z,3.7
2022-09-15T05:59:25.871Z,4.4
2022-09-15T06:05:09.673Z,4.3
2022-09-15T06:10:53.071Z,4.2
2022-09-15T06:16:37.037Z,4.9
2022-09-15T06:22:21.485Z,5.2
2022-09-15T06:28:04.709Z,5.5
2022-09-15T06:33:48.551Z,6.2
2022-09-15T06:39:31.837Z,6
2022-09-15T06:45:15.318Z,6.4
2022-09-15T06:50:59.074Z,6.3
2022-09-15T06:56:42.451Z,6.1
2022-09-15T07:02:26.228Z,6.1
2022-09-15T07:08:09.571Z,6.3
2022-09-15T07:13:54.223Z,7.2
2022-09-15T07:19:37.622Z,6.9
2022-09-15T07:25:21.081Z,6.8
2022-09-15T07:31:04.711Z,7.3
2022-09-15T07:36:47.863Z,8
2022-09-15T07:42:37.227Z,7.6
2022-09-15T07:48:27.344Z,8.1
2022-09-15T07:54:10.698Z,7.9
2022-09-15T07:59:54.039Z,7.9
2022-09-15T08:05:46.476Z,7.8
2022-09-15T08:11:29.509Z,7.9
2022-09-15T08:17:13.685Z,8.1
2022-09-15T08:22:56.898Z,8.4
2022-09-15T08:28:44.286Z,7.9
2022-09-15T08:34:27.723Z,8
2022-09-15T08:40:15.770Z,7.8
2022-09-15T08:46:02.123Z,7.5
2022-09-15T08:51:47.655Z,8.3
2022-09-15T08:57:30.915Z,7.3
2022-09-15T09:03:23.758Z,6.7
2022-09-15T09:09:26.259Z,6.2
2022-09-15T09:15:16.207Z,6.8
2022-09-15T09:21:04.904Z,6.7
2022-09-15T09:26:51.443Z,6.6
2022-09-15T09:32:40.292Z,6
2022-09-15T09:38:26.864Z,5.9
2022-09-15T09:44:12.202Z,5
2022-09-15T09:49:55.542Z,5.1
2022-09-15T09:55:38.404Z,5.5
2022-09-15T10:01:22.519Z,6.2
2022-09-15T10:07:06.098Z,5.9
2022-09-15T10:12:49.855Z,5.9
2022-09-15T10:18:34.778Z,5.9
2022-09-15T10:24:41.400Z,6.2
2022-09-15T10:30:25.972Z,5.9
2022-09-15T10:36:14.093Z,5.5
2022-09-15T10:42:00.387Z,5
2022-09-15T10:47:50.979Z,5
2022-09-15T10:53:38.487Z,5.2
2022-09-15T11:01:14.112Z,4.6
2022-09-15T11:07:03.358Z,4.7
2022-09-15T11:12:54.371Z,4.6
2022-09-15T11:18:44.989Z,4.6
2022-09-15T11:24:34.151Z,4.3
2022-09-15T11:30:21.994Z,3.8
2022-09-15T11:36:09.029Z,3.3
2022-09-15T11:41:54.792Z,3
2022-09-15T11:47:41.599Z,3.2
2022-09-15T11:53:28.908Z,2.6
2022-09-15T11:59:16.782Z,2.8
2022-09-15T12:05:06.947Z,2.7
2022-09-15T12:10:51.541Z,2.4
2022-09-15T12:16:35.279Z,2.3
2022-09-15T12:22:21.939Z,2
2022-09-15T12:28:16.926Z,2.2
2022-09-15T12:34:01.155Z,1.9
2022-09-15T12:39:46.219Z,1.8
2022-09-15T12:45:30.751Z,1.9
2022-09-15T12:51:19.086Z,1.8
2022-09-15T12:57:02.851Z,1.7
2022-09-15T13:02:48.425Z,1.7
2022-09-15T13:08:42.932Z,1.8
2022-09-15T13:14:28.674Z,1.9
2022-09-15T13:20:17.218Z,1.7
2022-09-15T13:26:01.485Z,1.3
2022-09-15T13:31:47.490Z,1.5
2022-09-15T13:38:06.637Z,1.3
2022-09-15T13:43:55.935Z,1.5
2022-09-15T13:49:46.152Z,1.3
2022-09-15T13:55:30.455Z,1.2
2022-09-15T14:01:14.463Z,1.1
2022-09-15T14:07:02.955Z,1
2022-09-15T14:12:45.877Z,1
2022-09-15T14:18:29.937Z,1
2022-09-15T14:24:21.899Z,1
2022-09-15T14:30:08.496Z,1.1
2022-09-15T14:35:51.668Z,0.9
2022-09-15T14:41:37.026Z,0.7
2022-09-15T14:47:22.724Z,0.9
2022-09-15T14:53:08.010Z,0.9
2022-09-15T14:58:53.038Z,1.1
2022-09-15T15:04:40.245Z,0.8
2022-09-15T15:10:26.052Z,0.9
2022-09-15T15:16:15.746Z,0.8
2022-09-15T15:22:03.998Z,0.7
2022-09-15T15:27:52.344Z,0.8
2022-09-15T15:33:35.782Z,0.8
2022-09-15T15:39:25.120Z,0.8
2022-09-15T15:45:13.586Z,0.8
2022-09-15T15:50:56.857Z,0.7
2022-09-15T15:56:40.483Z,0.8
2022-09-15T16:02:24.193Z,0.8
2022-09-15T16:08:12.269Z,1
2022-09-15T16:13:55.594Z,0.8
2022-09-15T16:19:39.229Z,0.8
2022-09-15T16:25:28.558Z,0.9
2022-09-15T16:31:14.979Z,0.9
2022-09-15T16:36:58.506Z,1
2022-09-15T16:42:41.863Z,1
2022-09-15T16:48:25.218Z,0.9
2022-09-15T16:54:11.351Z,1.1
2022-09-15T16:59:54.702Z,0.9
2022-09-15T17:05:39.455Z,1
2022-09-15T17:11:26.507Z,0.9
2022-09-15T17:17:15.013Z,1.2
2022-09-15T17:22:59.399Z,1.2
2022-09-15T17:28:42.553Z,1
2022-09-15T17:34:25.764Z,1
2022-09-15T17:40:09.751Z,1.1
2022-09-15T17:45:53.403Z,1
2022-09-15T17:51:36.707Z,0.9
2022-09-15T17:57:19.970Z,0.9
2022-09-15T18:03:03.991Z,1
2022-09-15T18:08:47.719Z,1.2
2022-09-15T18:14:31.410Z,0.9
2022-09-15T18:20:17.122Z,1.1
2022-09-15T18:25:59.816Z,1.1
2022-09-15T18:31:42.899Z,1.1
2022-09-15T18:37:26.266Z,1.2
2022-09-15T18:43:09.747Z,0.9
2022-09-15T18:48:53.199Z,1.2
2022-09-15T18:54:37.404Z,0.9
2022-09-15T19:00:22.543Z,1
2022-09-15T19:06:08.142Z,1.2
2022-09-15T19:11:51.291Z,1.1
2022-09-15T19:17:35.758Z,1
2022-09-15T19:23:19.076Z,1.2
2022-09-15T19:29:02.428Z,1.1
2022-09-15T19:34:46.070Z,1.3
2022-09-15T19:40:29.402Z,1.2
2022-09-15T19:46:17.291Z,1.4
2022-09-15T19:52:00.751Z,1.2
2022-09-15T19:57:44.232Z,1.2
2022-09-15T20:03:28.454Z,1.3
2022-09-15T20:09:11.469Z,1.4
2022-09-15T20:14:54.850Z,1.4
2022-09-15T20:20:40.571Z,1.4
2022-09-15T20:26:24.418Z,1.4
2022-09-15T20:32:08.243Z,1.4
2022-09-15T20:37:51.528Z,1.1
2022-09-15T20:43:36.361Z,1.6
2022-09-15T20:49:19.848Z,1.4
2022-09-15T20:55:03.520Z,1.4
2022-09-15T21:00:47.873Z,1.4
2022-09-15T21:06:32.368Z,1.4
2022-09-15T21:12:15.493Z,1.6
2022-09-15T21:17:58.825Z,1.3
2022-09-15T21:23:42.611Z,1.4
2022-09-15T21:29:26.362Z,1.5
2022-09-15T21:35:09.919Z,1.4
2022-09-15T21:40:53.210Z,1.4
2022-09-15T21:46:36.591Z,1.4
2022-09-15T21:52:20.143Z,1.5
2022-09-15T21:58:03.015Z,1.4
2022-09-15T22:03:48.911Z,1.5
2022-09-15T22:09:32.157Z,1.6
2022-09-15T22:15:15.764Z,1.5
2022-09-15T22:21:08.989Z,1.5
2022-09-15T22:26:52.224Z,1.4
2022-09-15T22:32:35.420Z,1.6
2022-09-15T22:38:18.703Z,1.6
2022-09-15T22:44:01.976Z,1.6
2022-09-15T22:49:45.091Z,1.4
2022-09-15T22:55:28.115Z,1.8
2022-09-15T23:01:12.533Z,1.5
2022-09-15T23:06:55.829Z,1.5
2022-09-15T23:12:38.973Z,1.5
2022-09-15T23:18:22.104Z,1.5
2022-09-15T23:24:05.600Z,1.4
2022-09-15T23:29:48.682Z,1.6
2022-09-15T23:35:31.997Z,1.3
2022-09-15T23:41:16.110Z,1.5
2022-09-15T23:46:59.825Z,1.2
2022-09-15T23:52:43.288Z,1.4
2022-09-15T23:58:26.487Z,1.3
